Terminal Aerodrome Forecast
Issued by NWS Shreveport, LA

Home | Current Version | Previous Version | Text Only | Print | Product List | Glossary On
Versions: 1 2 3 4 5 6 7 8 9 10 11 12 13 14 15 16 17
663
FTUS44 KSHV 072345
TAFELD
TAF
KELD 072345Z 0800/0824 36005KT P6SM OVC015
     FM080400 03006KT P6SM VCSH SCT009 OVC012
     FM080700 02010KT P6SM BKN015 OVC100
      TEMPO 0808/0812 SCT015
     FM081200 01010G16KT P6SM SCT025 BKN150
     FM081800 01010G16KT P6SM BKN150=

USA.gov is the U.S. government's official web portal to all federal, state and local government web resources and services.